Time;durP1;ratioP1;P1;durP2;ratioP2;P2;SDS_P1;SDS_P2;PMS_P1;PMS_P2;Temp;Humidity;BMP_temperature;BMP_pressure;BME280_temperature;BME280_humidity;BME280_pressure;Samples;Min_cycle;Max_cycle;Signal;HPM_P1;HPM_P2
2023/09/20 00:00:29;;;;;;;;;;;;;;;16.85;83.82;100779.28;5038071;28;1272;-75
2023/09/20 00:02:55;;;;;;;;;;;;;;;16.81;84.25;100778.81;5021831;28;1290;-74
2023/09/20 00:05:21;;;;;;;;;;;;;;;16.82;84.20;100774.41;5025469;28;1283;-74
2023/09/20 00:07:47;;;;;;;;;;;;;;;16.85;84.33;100769.63;5037305;28;1177;-74
2023/09/20 00:10:14;;;;;;;;;;;;;;;16.86;83.92;100779.13;5033076;28;1894;-75
2023/09/20 00:12:44;;;;;;;;;;;;;;;16.84;84.14;100773.22;5038208;28;1119;-74
2023/09/20 00:15:09;;;;;;;;;;;;;;;16.85;84.30;100764.38;5032842;28;1631;-74
2023/09/20 00:17:34;;;;;;;;;;;;;;;16.86;84.03;100771.28;5035794;28;1389;-74
2023/09/20 00:20:11;;;;;;;;;;;;;;;16.90;84.02;100766.50;5014180;28;1192;-75
2023/09/20 00:22:37;;;;;;;;;;;;;;;16.89;83.99;100760.44;5032555;28;1114;-74
2023/09/20 00:25:02;;;;;;;;;;;;;;;16.92;83.89;100780.28;5036125;28;1126;-74
2023/09/20 00:27:27;;;;;;;;;;;;;;;16.91;83.97;100774.19;5032804;28;1101;-74
2023/09/20 00:29:53;;;;;;;;;;;;;;;16.97;83.63;100768.31;5031520;28;1893;-74
2023/09/20 00:32:18;;;;;;;;;;;;;;;16.94;84.07;100779.09;5012822;28;1280;-74
2023/09/20 00:34:43;;;;;;;;;;;;;;;16.95;83.84;100772.88;5035093;28;1205;-74
2023/09/20 00:37:08;;;;;;;;;;;;;;;16.95;83.74;100769.44;5025499;28;1507;-75
2023/09/20 00:39:33;;;;;;;;;;;;;;;16.94;84.17;100771.25;5030982;28;1097;-74
2023/09/20 00:41:58;;;;;;;;;;;;;;;16.94;84.00;100763.38;5029899;28;1065;-75
2023/09/20 00:44:25;;;;;;;;;;;;;;;16.92;83.95;100764.56;5024919;28;1279;-74
2023/09/20 00:46:50;;;;;;;;;;;;;;;16.90;83.97;100764.69;5032794;28;1110;-74
2023/09/20 00:49:15;;;;;;;;;;;;;;;16.90;84.03;100767.31;5014204;28;1429;-74
2023/09/20 00:51:44;;;;;;;;;;;;;;;16.89;84.15;100754.41;5012892;28;1898;-74
2023/09/20 00:54:10;;;;;;;;;;;;;;;16.89;84.19;100763.06;5022680;28;1234;-74
2023/09/20 00:56:35;;;;;;;;;;;;;;;16.86;84.19;100759.94;5023783;28;1152;-74
2023/09/20 00:59:06;;;;;;;;;;;;;;;16.83;84.22;100755.88;5036447;28;1204;-74
2023/09/20 01:01:33;;;;;;;;;;;;;;;16.81;84.42;100762.28;5020258;28;1284;-74
2023/09/20 01:03:59;;;;;;;;;;;;;;;16.77;84.35;100764.41;5022609;28;1454;-74
2023/09/20 01:06:26;;;;;;;;;;;;;;;16.73;84.54;100765.72;5015275;28;1467;-74
2023/09/20 01:08:53;;;;;;;;;;;;;;;16.70;84.46;100766.03;5012368;28;1343;-74
2023/09/20 01:11:19;;;;;;;;;;;;;;;16.67;84.47;100771.59;5039379;28;1909;-74
2023/09/20 01:13:44;;;;;;;;;;;;;;;16.63;84.44;100765.03;5028310;28;1268;-76
2023/09/20 01:16:09;;;;;;;;;;;;;;;16.57;84.78;100768.31;5038702;28;1458;-75
2023/09/20 01:18:35;;;;;;;;;;;;;;;16.52;85.12;100755.75;5029966;28;1142;-77
2023/09/20 01:21:00;;;;;;;;;;;;;;;16.46;84.91;100765.09;5026595;28;1456;-76
2023/09/20 01:23:26;;;;;;;;;;;;;;;16.42;84.96;100763.78;5021386;28;1286;-74
2023/09/20 01:25:51;;;;;;;;;;;;;;;16.38;85.50;100757.22;5029133;28;1198;-74
2023/09/20 01:28:17;;;;;;;;;;;;;;;16.35;85.45;100757.56;5036772;28;1191;-74
2023/09/20 01:30:42;;;;;;;;;;;;;;;16.30;85.53;100753.81;5031505;28;1959;-74
2023/09/20 01:33:08;;;;;;;;;;;;;;;16.28;85.85;100751.31;5032979;28;1075;-75
2023/09/20 01:35:34;;;;;;;;;;;;;;;16.24;85.61;100747.41;5013026;28;1578;-74
2023/09/20 01:38:00;;;;;;;;;;;;;;;16.20;86.02;100748.72;5030816;28;1149;-74
2023/09/20 01:40:26;;;;;;;;;;;;;;;16.16;86.33;100739.56;5016454;28;1304;-75
2023/09/20 01:42:52;;;;;;;;;;;;;;;16.12;86.20;100741.69;5027943;28;1266;-76
2023/09/20 01:45:18;;;;;;;;;;;;;;;16.09;86.12;100741.19;5016018;28;1396;-75
2023/09/20 01:47:44;;;;;;;;;;;;;;;16.08;86.94;100739.56;5029225;28;1232;-75
2023/09/20 01:50:11;;;;;;;;;;;;;;;16.05;86.86;100729.41;5027957;28;1894;-75
2023/09/20 01:52:37;;;;;;;;;;;;;;;16.02;86.80;100729.75;5010843;28;1428;-74
2023/09/20 01:55:02;;;;;;;;;;;;;;;16.00;87.13;100731.69;5025828;28;1095;-75
2023/09/20 01:57:27;;;;;;;;;;;;;;;15.98;86.68;100731.88;5025633;28;1272;-74
2023/09/20 01:59:52;;;;;;;;;;;;;;;15.97;86.73;100721.56;5020091;28;1112;-74
2023/09/20 02:02:18;;;;;;;;;;;;;;;15.93;87.25;100721.88;5025084;28;1246;-76
2023/09/20 02:04:43;;;;;;;;;;;;;;;15.92;87.12;100717.63;5005933;28;1244;-74
2023/09/20 02:07:10;;;;;;;;;;;;;;;15.92;87.31;100714.22;5032137;28;1169;-74
2023/09/20 02:09:35;;;;;;;;;;;;;;;15.91;87.33;100712.56;5013284;28;1914;-74
2023/09/20 02:12:00;;;;;;;;;;;;;;;15.90;87.44;100710.94;5029121;28;1141;-75
2023/09/20 02:14:25;;;;;;;;;;;;;;;15.89;87.81;100704.09;5034013;28;1253;-75
2023/09/20 02:16:50;;;;;;;;;;;;;;;15.86;87.38;100710.44;5018059;28;1324;-75
2023/09/20 02:19:19;;;;;;;;;;;;;;;15.87;87.64;100709.47;5026664;28;1186;-74
2023/09/20 02:21:46;;;;;;;;;;;;;;;15.86;87.86;100709.63;5017580;28;1337;-75
2023/09/20 02:24:11;;;;;;;;;;;;;;;15.84;87.52;100716.81;5033963;28;1318;-74
2023/09/20 02:26:37;;;;;;;;;;;;;;;15.81;87.80;100697.03;5042173;28;1089;-74
2023/09/20 02:29:02;;;;;;;;;;;;;;;15.80;87.68;100700.63;5026873;28;1349;-74
2023/09/20 02:31:27;;;;;;;;;;;;;;;15.78;87.74;100692.16;5032097;28;1983;-74
2023/09/20 02:33:53;;;;;;;;;;;;;;;15.78;87.86;100697.38;5025536;28;1296;-74
2023/09/20 02:36:18;;;;;;;;;;;;;;;15.78;87.62;100686.91;5014357;28;1196;-74
2023/09/20 02:38:44;;;;;;;;;;;;;;;15.76;88.00;100693.25;5032292;28;1204;-74
2023/09/20 02:41:09;;;;;;;;;;;;;;;15.74;88.46;100690.81;5028941;28;1137;-74
2023/09/20 02:43:34;;;;;;;;;;;;;;;15.74;88.78;100685.59;5033475;28;1182;-74
2023/09/20 02:46:03;;;;;;;;;;;;;;;15.73;88.37;100689.19;5012921;28;1301;-74
2023/09/20 02:48:28;;;;;;;;;;;;;;;15.73;88.48;100691.00;5030423;28;1146;-74
2023/09/20 02:50:53;;;;;;;;;;;;;;;15.73;88.59;100683.16;5030649;28;1906;-77
2023/09/20 02:53:18;;;;;;;;;;;;;;;15.70;88.62;100679.03;5032779;28;1070;-73
2023/09/20 02:55:44;;;;;;;;;;;;;;;15.71;88.43;100680.66;5030645;28;1112;-74
2023/09/20 02:58:10;;;;;;;;;;;;;;;15.69;88.57;100687.88;5029435;28;1221;-74
2023/09/20 03:00:38;;;;;;;;;;;;;;;15.68;89.19;100674.97;5027925;28;1277;-75
2023/09/20 03:03:04;;;;;;;;;;;;;;;15.65;88.69;100670.84;5011385;28;1506;-74
2023/09/20 03:05:33;;;;;;;;;;;;;;;15.65;89.08;100673.47;5022066;28;1356;-74
2023/09/20 03:07:58;;;;;;;;;;;;;;;15.64;89.28;100674.47;5024166;28;1118;-74
2023/09/20 03:10:24;;;;;;;;;;;;;;;15.64;88.95;100671.84;5012567;28;1969;-73
2023/09/20 03:12:51;;;;;;;;;;;;;;;15.65;89.33;100660.41;5031389;28;1179;-75
2023/09/20 03:15:17;;;;;;;;;;;;;;;15.65;89.02;100665.63;5011096;28;1312;-74
2023/09/20 03:17:47;;;;;;;;;;;;;;;15.63;89.72;100665.81;5038593;28;1228;-74
2023/09/20 03:20:16;;;;;;;;;;;;;;;15.62;89.35;100651.09;5029869;28;995;-74
2023/09/20 03:22:42;;;;;;;;;;;;;;;15.64;89.22;100656.16;5026539;28;1299;-76
2023/09/20 03:25:11;;;;;;;;;;;;;;;15.64;89.79;100648.31;5022970;28;1370;-74
2023/09/20 03:27:36;;;;;;;;;;;;;;;15.65;89.63;100652.56;5013388;28;1269;-74
2023/09/20 03:30:03;;;;;;;;;;;;;;;15.66;89.50;100656.84;5036158;28;1972;-75
2023/09/20 03:32:28;;;;;;;;;;;;;;;15.67;89.75;100661.06;5032824;28;1079;-74
2023/09/20 03:34:55;;;;;;;;;;;;;;;15.66;89.58;100656.84;5036443;28;1461;-74
2023/09/20 03:37:20;;;;;;;;;;;;;;;15.68;90.02;100667.13;5030540;28;1213;-74
2023/09/20 03:39:46;;;;;;;;;;;;;;;15.68;89.58;100665.31;5039349;28;1191;-74
2023/09/20 03:42:11;;;;;;;;;;;;;;;15.71;90.27;100664.16;5032201;28;1184;-74
2023/09/20 03:44:38;;;;;;;;;;;;;;;15.70;90.07;100662.53;5035757;28;1573;-80
2023/09/20 03:47:04;;;;;;;;;;;;;;;15.71;90.00;100664.97;5031662;28;1068;-80
2023/09/20 03:49:29;;;;;;;;;;;;;;;15.74;90.12;100674.31;5012544;28;1337;-79
2023/09/20 03:51:54;;;;;;;;;;;;;;;15.75;90.55;100666.31;5031894;28;1902;-79
2023/09/20 03:54:19;;;;;;;;;;;;;;;15.77;90.79;100659.13;5024487;28;1150;-80
2023/09/20 03:56:45;;;;;;;;;;;;;;;15.78;90.40;100660.75;5033856;28;1217;-80
2023/09/20 03:59:12;;;;;;;;;;;;;;;15.79;90.59;100667.63;5033864;28;1197;-80
2023/09/20 04:01:37;;;;;;;;;;;;;;;15.81;90.26;100665.66;5030729;28;1260;-78
2023/09/20 04:04:03;;;;;;;;;;;;;;;15.80;90.63;100648.31;5029546;28;1681;-78
2023/09/20 04:06:29;;;;;;;;;;;;;;;15.79;90.60;100646.69;5023515;28;1089;-80
2023/09/20 04:08:54;;;;;;;;;;;;;;;15.79;90.52;100646.69;5027508;28;1328;-77
2023/09/20 04:11:20;;;;;;;;;;;;;;;15.78;90.82;100650.31;5014491;28;1918;-80
2023/09/20 04:13:45;;;;;;;;;;;;;;;15.77;90.41;100643.44;5024946;28;1639;-78
2023/09/20 04:16:10;;;;;;;;;;;;;;;15.77;90.37;100653.91;5029214;28;1245;-80
2023/09/20 04:18:35;;;;;;;;;;;;;;;15.75;90.49;100650.63;5031577;28;1192;-78
2023/09/20 04:21:01;;;;;;;;;;;;;;;15.74;90.28;100642.94;5030775;28;1515;-78
2023/09/20 04:23:26;;;;;;;;;;;;;;;15.73;90.26;100646.53;5036145;28;1265;-79
2023/09/20 04:25:51;;;;;;;;;;;;;;;15.70;90.29;100645.06;5035735;28;1193;-79
2023/09/20 04:28:16;;;;;;;;;;;;;;;15.67;91.24;100640.16;5038877;28;1283;-80
2023/09/20 04:30:42;;;;;;;;;;;;;;;15.66;91.10;100635.91;5037364;28;1898;-80
2023/09/20 04:33:07;;;;;;;;;;;;;;;15.64;90.91;100637.84;5032411;28;1274;-80
2023/09/20 04:35:33;;;;;;;;;;;;;;;15.63;91.07;100638.84;5033917;28;1272;-80
2023/09/20 04:38:00;;;;;;;;;;;;;;;15.60;91.32;100631.31;5037890;28;1268;-79
2023/09/20 04:40:26;;;;;;;;;;;;;;;15.57;91.22;100635.06;5033263;28;1238;-80
2023/09/20 04:42:51;;;;;;;;;;;;;;;15.57;91.34;100632.44;5020099;28;1289;-80
2023/09/20 04:45:20;;;;;;;;;;;;;;;15.53;91.43;100641.56;5038142;28;1514;-78
2023/09/20 04:47:45;;;;;;;;;;;;;;;15.49;91.79;100634.25;5036099;28;1249;-79
2023/09/20 04:50:15;;;;;;;;;;;;;;;15.47;91.86;100644.03;5031045;28;1906;-81
2023/09/20 04:52:41;;;;;;;;;;;;;;;15.46;92.19;100639.78;5030631;28;1182;-78
2023/09/20 04:55:06;;;;;;;;;;;;;;;15.41;92.17;100643.69;5028882;28;1226;-78
2023/09/20 04:57:32;;;;;;;;;;;;;;;15.39;92.24;100640.41;5033231;28;1218;-74
2023/09/20 04:59:59;;;;;;;;;;;;;;;15.37;92.21;100641.56;5029903;28;1408;-74
2023/09/20 05:02:24;;;;;;;;;;;;;;;15.36;92.26;100634.69;5031223;28;1249;-81
2023/09/20 05:04:50;;;;;;;;;;;;;;;15.33;92.37;100635.84;5038773;28;1234;-78
2023/09/20 05:07:16;;;;;;;;;;;;;;;15.30;92.14;100636.16;5032442;28;1280;-80
2023/09/20 05:09:41;;;;;;;;;;;;;;;15.29;92.09;100629.28;5034950;28;1965;-80
2023/09/20 05:12:09;;;;;;;;;;;;;;;15.27;92.50;100633.88;5036175;28;1170;-79
2023/09/20 05:14:34;;;;;;;;;;;;;;;15.26;92.59;100634.84;5033876;28;1250;-80
2023/09/20 05:16:59;;;;;;;;;;;;;;;15.22;92.83;100633.53;5036085;28;1229;-80
2023/09/20 05:19:25;;;;;;;;;;;;;;;15.22;92.85;100637.94;5029723;28;1165;-79
2023/09/20 05:21:50;;;;;;;;;;;;;;;15.22;92.71;100638.75;5022295;28;1229;-80
2023/09/20 05:24:15;;;;;;;;;;;;;;;15.22;92.98;100638.75;5014158;28;1306;-80
2023/09/20 05:26:40;;;;;;;;;;;;;;;15.22;92.97;100638.75;5001625;28;1966;-78
2023/09/20 05:29:06;;;;;;;;;;;;;;;15.20;93.35;100638.09;5028019;28;1169;-80
2023/09/20 05:31:32;;;;;;;;;;;;;;;15.20;92.89;100630.28;5022908;28;1894;-79
2023/09/20 05:33:58;;;;;;;;;;;;;;;15.18;93.08;100632.19;5024833;28;1197;-79
2023/09/20 05:36:26;;;;;;;;;;;;;;;15.17;93.09;100629.75;5010164;28;1330;-79
2023/09/20 05:38:52;;;;;;;;;;;;;;;15.16;93.38;100621.09;5025090;28;1184;-79
2023/09/20 05:41:18;;;;;;;;;;;;;;;15.16;93.09;100623.72;5011669;28;1330;-79
2023/09/20 05:43:43;;;;;;;;;;;;;;;15.16;93.59;100628.94;5038963;28;1193;-79
2023/09/20 05:46:08;;;;;;;;;;;;;;;15.17;93.55;100620.13;5029808;28;1565;-79
2023/09/20 05:48:34;;;;;;;;;;;;;;;15.16;93.59;100618.50;5037154;28;1193;-78
2023/09/20 05:51:00;;;;;;;;;;;;;;;15.16;93.77;100618.50;5028990;28;1983;-79
2023/09/20 05:53:25;;;;;;;;;;;;;;;15.17;94.08;100620.13;5038601;28;1312;-78
2023/09/20 05:55:50;;;;;;;;;;;;;;;15.16;94.29;100613.28;5029574;28;1201;-78
2023/09/20 05:58:15;;;;;;;;;;;;;;;15.18;94.28;100611.31;5032386;28;1197;-79
2023/09/20 06:00:41;;;;;;;;;;;;;;;15.19;94.13;100622.56;5012247;28;1269;-78
2023/09/20 06:03:07;;;;;;;;;;;;;;;15.19;94.25;100618.16;5012307;28;1419;-78
2023/09/20 06:05:35;;;;;;;;;;;;;;;15.21;94.03;100611.00;5033887;28;1147;-78
2023/09/20 06:08:00;;;;;;;;;;;;;;;15.24;94.87;100615.88;5034651;28;992;-79
2023/09/20 06:10:25;;;;;;;;;;;;;;;15.28;94.74;100621.63;5027326;28;1906;-78
2023/09/20 06:12:51;;;;;;;;;;;;;;;15.30;94.18;100617.84;5032733;28;1944;-78
2023/09/20 06:15:16;;;;;;;;;;;;;;;15.32;94.63;100618.53;5027398;28;1295;-79
2023/09/20 06:17:42;;;;;;;;;;;;;;;15.35;94.41;100618.19;5029239;28;1170;-79
2023/09/20 06:20:09;;;;;;;;;;;;;;;15.38;94.08;100615.28;5030868;28;1106;-78
2023/09/20 06:22:34;;;;;;;;;;;;;;;15.41;94.87;100612.31;5011602;28;1237;-79
2023/09/20 06:25:01;;;;;;;;;;;;;;;15.45;94.83;100601.56;5024784;28;1018;-78
2023/09/20 06:27:26;;;;;;;;;;;;;;;15.47;94.73;100602.19;5026495;28;943;-79
2023/09/20 06:29:52;;;;;;;;;;;;;;;15.50;94.93;100596.66;5025685;28;1898;-79
2023/09/20 06:32:17;;;;;;;;;;;;;;;15.52;95.08;100605.16;5026051;28;1053;-79
2023/09/20 06:34:42;;;;;;;;;;;;;;;15.54;94.60;100600.56;5026319;28;1133;-79
2023/09/20 06:37:10;;;;;;;;;;;;;;;15.57;94.68;100600.25;5026408;28;1169;-79
2023/09/20 06:39:36;;;;;;;;;;;;;;;15.60;94.32;100610.41;5018496;28;1147;-78
2023/09/20 06:42:01;;;;;;;;;;;;;;;15.64;94.89;100603.88;5022828;28;1378;-79
2023/09/20 06:44:27;;;;;;;;;;;;;;;15.68;94.84;100612.22;5020735;28;1226;-80
2023/09/20 06:46:52;;;;;;;;;;;;;;;15.72;94.81;100609.13;5021828;28;1082;-79
2023/09/20 06:49:18;;;;;;;;;;;;;;;15.77;94.23;100598.97;5031078;28;1082;-78
2023/09/20 06:51:43;;;;;;;;;;;;;;;15.82;94.60;100599.28;5033056;28;1934;-79
2023/09/20 06:54:08;;;;;;;;;;;;;;;15.87;94.44;100601.41;5034863;28;944;-79
2023/09/20 06:56:34;;;;;;;;;;;;;;;15.90;94.85;100601.91;5031287;28;1229;-78
2023/09/20 06:59:01;;;;;;;;;;;;;;;15.93;94.46;100601.56;5018274;28;1391;-80
2023/09/20 07:01:26;;;;;;;;;;;;;;;15.98;94.09;100603.69;5035116;28;1287;-79
2023/09/20 07:03:52;;;;;;;;;;;;;;;16.03;94.26;100605.81;5015305;28;1762;-79
2023/09/20 07:06:17;;;;;;;;;;;;;;;16.10;94.31;100601.53;5016579;28;1467;-79
2023/09/20 07:08:43;;;;;;;;;;;;;;;16.15;94.30;100607.09;5034576;28;1005;-79
2023/09/20 07:11:11;;;;;;;;;;;;;;;16.22;94.18;100610.66;5030382;28;1898;-79
2023/09/20 07:13:36;;;;;;;;;;;;;;;16.29;94.08;100603.00;5032028;28;1278;-79
2023/09/20 07:16:04;;;;;;;;;;;;;;;16.39;93.40;100607.03;5035324;28;1196;-79
2023/09/20 07:18:30;;;;;;;;;;;;;;;16.37;94.09;100609.00;5029217;28;1293;-80
2023/09/20 07:20:55;;;;;;;;;;;;;;;16.40;94.13;100611.31;5034115;28;1415;-78
2023/09/20 07:23:21;;;;;;;;;;;;;;;16.43;93.65;100603.09;5035043;28;1189;-78
2023/09/20 07:25:49;;;;;;;;;;;;;;;16.44;93.86;100603.91;5031828;28;1644;-77
2023/09/20 07:28:16;;;;;;;;;;;;;;;16.45;93.39;100606.34;5031549;28;1056;-79
2023/09/20 07:30:44;;;;;;;;;;;;;;;16.47;93.47;100603.59;5015337;28;1894;-78
2023/09/20 07:33:11;;;;;;;;;;;;;;;16.49;93.44;100606.03;5013191;28;1396;-80
2023/09/20 07:35:38;;;;;;;;;;;;;;;16.50;93.93;100607.66;5029487;28;1590;-79
2023/09/20 07:38:04;;;;;;;;;;;;;;;16.52;93.64;100596.03;5011856;28;1479;-79
2023/09/20 07:40:29;;;;;;;;;;;;;;;16.57;93.89;100598.94;5034442;28;1225;-79
2023/09/20 07:43:07;;;;;;;;;;;;;;;16.62;93.22;100595.81;5025291;28;1182;-80
2023/09/20 07:45:38;;;;;;;;;;;;;;;16.69;92.88;100596.81;5014453;28;1313;-79
2023/09/20 07:48:12;;;;;;;;;;;;;;;16.69;93.23;100602.03;5031129;28;1243;-79
2023/09/20 07:50:41;;;;;;;;;;;;;;;16.75;93.08;100603.19;5028266;28;1902;-77
2023/09/20 07:53:28;;;;;;;;;;;;;;;16.80;93.06;100593.81;5029902;28;1090;-79
2023/09/20 07:55:58;;;;;;;;;;;;;;;16.90;93.09;100599.66;5029087;28;1531;-78
2023/09/20 07:58:23;;;;;;;;;;;;;;;16.92;92.94;100592.47;5042069;28;1126;-80
2023/09/20 08:00:51;;;;;;;;;;;;;;;17.00;92.76;100591.59;5037432;28;1163;-80
2023/09/20 08:03:18;;;;;;;;;;;;;;;17.09;92.75;100593.19;5034128;28;1288;-79
2023/09/20 08:05:43;;;;;;;;;;;;;;;17.17;92.53;100589.69;5038646;28;1193;-79
2023/09/20 08:08:08;;;;;;;;;;;;;;;17.26;92.66;100588.63;5040878;28;1351;-79
2023/09/20 08:10:34;;;;;;;;;;;;;;;17.33;92.36;100589.59;5017358;28;1906;-79
2023/09/20 08:13:00;;;;;;;;;;;;;;;17.40;92.07;100595.75;5030731;28;1276;-79
2023/09/20 08:15:26;;;;;;;;;;;;;;;17.44;91.67;100602.28;5034182;28;1291;-78
2023/09/20 08:20:38;;;;;;;;;;;;;;;17.57;91.25;100598.25;5033198;28;1484;-80
2023/09/20 09:01:25;;;;;;;;;;;;;;;17.67;88.89;100627.69;5035599;28;1134;-78
2023/09/20 09:03:50;;;;;;;;;;;;;;;17.70;88.67;100616.81;5027813;28;1257;-80
2023/09/20 09:06:15;;;;;;;;;;;;;;;17.68;89.03;100624.88;5035609;28;1389;-80
2023/09/20 09:08:41;;;;;;;;;;;;;;;17.72;89.00;100630.59;5033182;28;1217;-79
2023/09/20 09:11:06;;;;;;;;;;;;;;;17.80;88.39;100627.91;5033869;28;1968;-80
2023/09/20 09:13:31;;;;;;;;;;;;;;;17.82;88.21;100625.94;5011315;28;1221;-78
2023/09/20 09:15:57;;;;;;;;;;;;;;;17.88;88.16;100629.66;5042749;28;1102;-79
2023/09/20 09:18:22;;;;;;;;;;;;;;;17.97;88.30;100634.66;5016594;28;1560;-78
2023/09/20 09:20:49;;;;;;;;;;;;;;;17.96;88.28;100635.66;5027203;28;1311;-78
2023/09/20 09:23:30;;;;;;;;;;;;;;;17.98;88.25;100640.72;5025656;28;1225;-80
2023/09/20 09:25:55;;;;;;;;;;;;;;;17.99;88.08;100632.66;5029717;28;1123;-79
2023/09/20 09:28:21;;;;;;;;;;;;;;;18.01;88.09;100635.13;5011620;28;1239;-79
2023/09/20 09:30:49;;;;;;;;;;;;;;;18.02;88.19;100637.56;5025410;28;1894;-79
2023/09/20 09:33:15;;;;;;;;;;;;;;;18.11;88.08;100629.59;5025855;28;1225;-79
2023/09/20 09:35:40;;;;;;;;;;;;;;;18.15;87.77;100625.63;5020919;28;1268;-79
2023/09/20 09:38:05;;;;;;;;;;;;;;;18.21;87.78;100619.66;5025468;28;1220;-80
2023/09/20 09:40:30;;;;;;;;;;;;;;;18.25;87.65;100615.69;5031103;28;1221;-80
2023/09/20 09:43:10;;;;;;;;;;;;;;;18.34;87.56;100611.97;5029827;28;1185;-80
2023/09/20 09:45:36;;;;;;;;;;;;;;;18.42;87.54;100611.91;5028542;28;1334;-79
2023/09/20 09:48:05;;;;;;;;;;;;;;;18.50;86.73;100598.66;5023507;28;1569;-79
2023/09/20 09:50:31;;;;;;;;;;;;;;;18.57;86.92;100604.81;5031813;28;1906;-79
2023/09/20 09:52:59;;;;;;;;;;;;;;;18.63;86.21;100597.19;5027266;28;1174;-78
2023/09/20 09:55:24;;;;;;;;;;;;;;;18.63;86.00;100600.63;5030175;28;1122;-79
2023/09/20 09:57:49;;;;;;;;;;;;;;;18.65;86.23;100589.97;5033088;28;1260;-79
2023/09/20 10:00:16;;;;;;;;;;;;;;;18.65;86.09;100600.47;5029536;28;1180;-80
2023/09/20 10:02:41;;;;;;;;;;;;;;;18.67;85.79;100587.97;5024863;28;1102;-79
2023/09/20 10:05:12;;;;;;;;;;;;;;;18.67;85.48;100591.41;5022821;28;1121;-78
2023/09/20 10:07:40;;;;;;;;;;;;;;;18.71;85.32;100594.50;5031451;28;1336;-78
2023/09/20 10:10:12;;;;;;;;;;;;;;;18.74;85.49;100588.88;5011281;28;1967;-79
2023/09/20 10:12:38;;;;;;;;;;;;;;;18.79;85.41;100583.88;5018363;28;1018;-79
2023/09/20 10:15:06;;;;;;;;;;;;;;;18.87;85.59;100581.16;5036793;28;1242;-79
2023/09/20 10:17:32;;;;;;;;;;;;;;;19.01;85.08;100580.28;5036789;28;1328;-80
2023/09/20 10:19:57;;;;;;;;;;;;;;;19.14;84.64;100590.13;5028394;28;1570;-79
2023/09/20 10:22:23;;;;;;;;;;;;;;;19.19;84.60;100571.97;5030600;28;1590;-79
2023/09/20 10:24:53;;;;;;;;;;;;;;;19.22;84.52;100571.63;5034995;28;1101;-78
2023/09/20 10:27:20;;;;;;;;;;;;;;;19.28;84.59;100565.59;5029762;28;1015;-79
2023/09/20 10:30:09;;;;;;;;;;;;;;;19.35;84.17;100569.09;5031106;28;932;-78
2023/09/20 10:32:56;;;;;;;;;;;;;;;19.45;83.91;100575.88;5024349;28;1272;-79
2023/09/20 10:35:33;;;;;;;;;;;;;;;19.44;83.76;100580.31;5004313;28;1452;-79
2023/09/20 10:38:23;;;;;;;;;;;;;;;19.44;83.86;100575.06;5029066;28;1218;-79
2023/09/20 10:40:49;;;;;;;;;;;;;;;19.47;83.56;100561.50;5030074;28;989;-79
2023/09/20 10:43:33;;;;;;;;;;;;;;;19.52;83.17;100567.03;5010527;28;1698;-79
2023/09/20 10:46:00;;;;;;;;;;;;;;;19.56;82.79;100567.47;5014197;28;1176;-80
2023/09/20 10:48:26;;;;;;;;;;;;;;;19.62;83.05;100567.53;5029822;28;1347;-80
2023/09/20 10:50:57;;;;;;;;;;;;;;;19.69;82.65;100556.25;5010452;28;1959;-78
2023/09/20 10:53:47;;;;;;;;;;;;;;;19.82;81.03;100556.34;5032712;28;1066;-79
2023/09/20 10:56:32;;;;;;;;;;;;;;;19.78;80.60;100558.53;5028889;28;988;-79
2023/09/20 10:58:59;;;;;;;;;;;;;;;19.79;80.85;100551.47;5023397;28;1228;-79
2023/09/20 11:01:25;;;;;;;;;;;;;;;19.89;81.64;100551.94;5017614;28;1424;-78
2023/09/20 11:03:51;;;;;;;;;;;;;;;20.15;80.48;100541.56;5028458;28;1153;-78
2023/09/20 11:06:16;;;;;;;;;;;;;;;20.27;79.70;100543.66;5029466;28;1082;-78
2023/09/20 11:08:43;;;;;;;;;;;;;;;20.39;79.46;100542.88;5023075;28;1193;-78
2023/09/20 11:11:13;;;;;;;;;;;;;;;20.47;78.36;100544.56;5027842;28;1957;-79
2023/09/20 11:13:41;;;;;;;;;;;;;;;20.51;78.79;100537.91;5028982;28;1315;-79
2023/09/20 11:16:08;;;;;;;;;;;;;;;20.61;76.35;100540.16;5024016;28;1153;-79
2023/09/20 11:18:34;;;;;;;;;;;;;;;20.53;76.59;100540.31;5014544;28;1238;-79
2023/09/20 11:21:00;;;;;;;;;;;;;;;20.51;76.76;100545.00;5033049;28;1354;-79
2023/09/20 11:23:25;;;;;;;;;;;;;;;20.49;77.50;100547.84;5037435;28;1068;-79
2023/09/20 11:25:50;;;;;;;;;;;;;;;20.56;76.37;100551.28;5029970;28;1206;-79
2023/09/20 11:28:16;;;;;;;;;;;;;;;20.47;76.64;100549.81;5033840;28;1257;-79
2023/09/20 11:30:42;;;;;;;;;;;;;;;20.40;76.66;100539.25;5036439;28;1955;-78
2023/09/20 11:33:24;;;;;;;;;;;;;;;20.37;75.67;100539.66;5035493;28;1309;-79
2023/09/20 11:35:49;;;;;;;;;;;;;;;20.37;76.04;100538.84;5025282;28;1330;-79
2023/09/20 11:38:15;;;;;;;;;;;;;;;20.36;75.84;100526.69;5035485;28;1484;-79
2023/09/20 11:40:43;;;;;;;;;;;;;;;20.36;75.71;100524.03;5027342;28;1055;-78
2023/09/20 11:43:14;;;;;;;;;;;;;;;20.40;76.03;100514.72;5034230;28;1095;-79
2023/09/20 11:45:43;;;;;;;;;;;;;;;20.43;76.16;100525.69;5028135;28;1001;-79
2023/09/20 11:48:12;;;;;;;;;;;;;;;20.48;75.73;100524.31;5031834;28;1155;-79
2023/09/20 11:50:42;;;;;;;;;;;;;;;20.58;75.90;100530.81;5032622;28;1960;-80
2023/09/20 11:53:07;;;;;;;;;;;;;;;20.67;75.48;100534.91;5015746;28;1370;-79
2023/09/20 11:55:32;;;;;;;;;;;;;;;20.75;75.35;100546.28;5020647;28;1379;-80
2023/09/20 11:57:59;;;;;;;;;;;;;;;20.76;75.69;100540.84;5039337;28;1154;-79
2023/09/20 12:00:25;;;;;;;;;;;;;;;20.80;75.43;100528.06;5010846;28;1388;-79
2023/09/20 12:02:51;;;;;;;;;;;;;;;20.86;75.08;100532.53;5035724;28;1197;-79
2023/09/20 12:05:18;;;;;;;;;;;;;;;20.81;74.67;100534.94;5029895;28;1093;-78
2023/09/20 12:07:51;;;;;;;;;;;;;;;20.77;74.37;100528.47;5033207;28;1142;-78
2023/09/20 12:10:16;;;;;;;;;;;;;;;20.72;74.70;100526.41;5029959;28;1894;-78
2023/09/20 12:12:42;;;;;;;;;;;;;;;20.71;74.90;100529.25;5033183;28;1305;-79
2023/09/20 12:15:07;;;;;;;;;;;;;;;20.68;75.06;100523.34;5031013;28;1000;-79
2023/09/20 12:17:32;;;;;;;;;;;;;;;20.74;74.31;100523.59;5026266;28;1491;-80
2023/09/20 12:19:58;;;;;;;;;;;;;;;20.71;74.62;100524.00;5010092;28;1352;-80
2023/09/20 12:22:23;;;;;;;;;;;;;;;20.69;74.50;100522.34;5021761;28;1241;-79
2023/09/20 12:24:48;;;;;;;;;;;;;;;20.64;74.18;100519.53;5026941;28;1025;-78
2023/09/20 12:27:13;;;;;;;;;;;;;;;20.63;74.37;100523.13;5036672;28;1563;-79
2023/09/20 12:29:38;;;;;;;;;;;;;;;20.65;74.35;100515.88;5022741;28;1662;-80
2023/09/20 12:32:04;;;;;;;;;;;;;;;20.72;74.36;100517.72;5023040;28;1959;-80
2023/09/20 12:34:29;;;;;;;;;;;;;;;20.79;73.66;100513.25;5022811;28;1374;-79
2023/09/20 12:36:56;;;;;;;;;;;;;;;20.84;73.94;100508.19;5026807;28;1330;-80
2023/09/20 12:39:21;;;;;;;;;;;;;;;20.88;71.70;100509.44;5023899;28;1346;-80
2023/09/20 12:41:47;;;;;;;;;;;;;;;20.86;71.94;100506.97;5017168;28;1636;-79
2023/09/20 12:44:12;;;;;;;;;;;;;;;20.82;72.07;100504.97;5036035;28;1068;-80
2023/09/20 12:46:37;;;;;;;;;;;;;;;20.76;72.24;100497.81;5040550;28;1123;-79
2023/09/20 12:49:04;;;;;;;;;;;;;;;20.76;71.81;100489.91;5009506;28;1361;-81
2023/09/20 12:51:29;;;;;;;;;;;;;;;20.77;72.25;100494.19;5034766;28;1893;-80
2023/09/20 12:53:55;;;;;;;;;;;;;;;20.84;72.30;100498.47;5032305;28;1169;-80
2023/09/20 12:56:20;;;;;;;;;;;;;;;20.86;72.33;100495.63;5035743;28;1102;-79
2023/09/20 12:58:45;;;;;;;;;;;;;;;20.88;72.84;100488.34;5028531;28;1354;-80
2023/09/20 13:01:10;;;;;;;;;;;;;;;21.00;72.56;100489.38;5015778;28;1173;-81
2023/09/20 13:03:36;;;;;;;;;;;;;;;21.13;72.05;100486.72;5029821;28;1001;-80
2023/09/20 13:06:03;;;;;;;;;;;;;;;21.15;71.59;100484.69;5030929;28;1210;-80
2023/09/20 13:08:28;;;;;;;;;;;;;;;21.10;71.48;100471.28;5005408;28;1410;-79
2023/09/20 13:10:53;;;;;;;;;;;;;;;21.09;71.82;100467.03;5016472;28;1967;-79
2023/09/20 13:13:19;;;;;;;;;;;;;;;21.13;71.39;100475.38;5027605;28;1382;-80
2023/09/20 13:15:44;;;;;;;;;;;;;;;21.20;71.26;100466.44;5012281;28;1497;-81
2023/09/20 13:18:09;;;;;;;;;;;;;;;21.27;70.61;100455.06;5022524;28;1095;-80
2023/09/20 13:20:35;;;;;;;;;;;;;;;21.18;70.85;100455.28;5010481;28;1379;-80
2023/09/20 13:23:00;;;;;;;;;;;;;;;21.18;70.75;100457.13;5022505;28;1355;-81
2023/09/20 13:25:31;;;;;;;;;;;;;;;21.19;70.27;100454.25;5024263;28;1146;-78